Saxaren — SKHW — position and weather

sailwx.info

Track history (hours):
 
Tides and Currents Weather Stations Pressure Air Temp Water Temp Dewpoint Dewpoint Depression Visibility Wind Speed Wind Dir Waves Ship Positions

Saxaren

Last reported at 2014-Jul-26 11:24 UTC. Time now 2014-Jul-26 17:16 UTC.
Position N 59°20' E 018°12'.

Length 38 m; draft 1.8 m.

Type: Passenger vessel. MMSI: 265512110.

Date/timePositionNaut miles runAvg speedWind from/ knotsBaromVisibWave heightAir tempDewpointWater temp
2014-Jul-26 11:24N 59°20' E 018°12'4 4.5
2014-Jul-26 10:33N 59°20' E 018°05'0 0.0
2014-Jul-26 09:33N 59°20' E 018°05'1 0.1
2014-Jul-25 16:07N 59°19' E 018°06'1 0.6
2014-Jul-25 14:32N 59°20' E 018°05'0 0.0
2014-Jul-25 03:12N 59°20' E 018°05'0 0.0
2014-Jul-25 02:15N 59°20' E 018°04'0 0.0
2014-Jul-25 01:18N 59°20' E 018°04'0 0.0
2014-Jul-24 17:17N 59°20' E 018°04'4 0.3
2014-Jul-24 07:07N 59°20' E 018°11'4 2.3
2014-Jul-24 05:33N 59°20' E 018°05'0 0.0
2014-Jul-23 17:20N 59°20' E 018°05'4 0.4
2014-Jul-23 07:09N 59°20' E 018°13'4 6.4
2014-Jul-23 06:28N 59°20' E 018°05'0 0.0
2014-Jul-23 05:33N 59°20' E 018°05'0 0.0
2014-Jul-23 04:33N 59°20' E 018°05'0 0.0
2014-Jul-23 03:33N 59°20' E 018°05'0 0.0
2014-Jul-23 02:33N 59°20' E 018°05'0 0.0
2014-Jul-23 01:33N 59°20' E 018°05'0 0.0
2014-Jul-23 00:33N 59°20' E 018°05'0 0.0
2014-Jul-22 23:33N 59°20' E 018°05'0 0.0
2014-Jul-22 22:33N 59°20' E 018°05'0 0.0
2014-Jul-22 21:33N 59°20' E 018°05'0 0.0
2014-Jul-22 20:33N 59°20' E 018°05'0 0.0
2014-Jul-22 19:33N 59°20' E 018°05'0 0.0
2014-Jul-22 18:33N 59°20' E 018°05'0 0.0
2014-Jul-22 17:33N 59°20' E 018°05'0 0.0
2014-Jul-21 19:06N 59°20' E 018°05'0 0.0
2014-Jul-21 18:33N 59°20' E 018°05'0 0.0
2014-Jul-21 17:33N 59°20' E 018°05'0 0.0
2014-Jul-21 06:23N 59°20' E 018°05'1 0.0
2014-Jul-20 15:05N 59°19' E 018°05'1 1.1
2014-Jul-20 14:28N 59°20' E 018°04'1 0.1
2014-Jul-20 07:06N 59°19' E 018°06'1 1.4
2014-Jul-20 06:31N 59°20' E 018°04'0 0.0
2014-Jul-20 05:33N 59°20' E 018°04'0 0.0
2014-Jul-20 04:32N 59°20' E 018°04'0 0.0
2014-Jul-20 03:33N 59°20' E 018°04'0 0.0
2014-Jul-20 02:33N 59°20' E 018°04'0 0.0
2014-Jul-20 01:33N 59°20' E 018°04'0 0.0
2014-Jul-20 00:33N 59°20' E 018°04'0 0.0
2014-Jul-19 23:33N 59°20' E 018°04'0 0.0
2014-Jul-19 22:33N 59°20' E 018°04'0 0.0
2014-Jul-19 21:33N 59°20' E 018°04'0 0.0
2014-Jul-19 20:33N 59°20' E 018°04'0 0.0
2014-Jul-19 19:33N 59°20' E 018°04'1 0.1
2014-Jul-19 11:09N 59°19' E 018°06'1 1.7
2014-Jul-19 10:33N 59°20' E 018°04'0 0.0
2014-Jul-19 09:33N 59°20' E 018°04'1 0.0
2014-Jul-18 16:06N 59°19' E 018°05'1 0.4
2014-Jul-18 14:16N 59°20' E 018°04'0 0.0
2014-Jul-18 06:34N 59°19' E 018°05'0 0.3
2014-Jul-18 05:33N 59°20' E 018°04'0 0.0
2014-Jul-18 04:33N 59°20' E 018°04'0 0.0
2014-Jul-18 03:33N 59°20' E 018°04'0 0.0
2014-Jul-18 02:34N 59°20' E 018°05'0 0.0
2014-Jul-18 01:33N 59°20' E 018°05'0 0.0
2014-Jul-18 00:33N 59°20' E 018°05'0 0.0
2014-Jul-17 23:33N 59°20' E 018°04'0 0.0
2014-Jul-17 22:33N 59°20' E 018°04'0 0.0
2014-Jul-17 21:33N 59°20' E 018°04'0 0.0
2014-Jul-17 20:33N 59°20' E 018°04'0 0.0
2014-Jul-17 19:33N 59°20' E 018°04'0 0.0
2014-Jul-17 18:33N 59°20' E 018°05'0 0.0
2014-Jul-17 17:33N 59°20' E 018°04'0 0.0
2014-Jul-17 06:33N 59°20' E 018°05'0 0.0
2014-Jul-17 05:33N 59°20' E 018°04'0 0.0
2014-Jul-17 04:33N 59°20' E 018°04'0 0.0
2014-Jul-17 03:33N 59°20' E 018°04'0 0.0
2014-Jul-17 02:33N 59°20' E 018°04'0 0.0
2014-Jul-17 01:33N 59°20' E 018°04'0 0.0
2014-Jul-17 00:33N 59°20' E 018°05'0 0.0
2014-Jul-16 23:34N 59°20' E 018°04'0 0.0
2014-Jul-16 22:33N 59°20' E 018°04'0 0.0
2014-Jul-16 21:33N 59°20' E 018°04'  
Track history (hours):
 
Tides and Currents Weather Stations Pressure Air Temp Water Temp Dewpoint Dewpoint Depression Visibility Wind Speed Wind Dir Waves Ship Positions

Saxaren

Last reported at 2014-Jul-26 11:24 UTC. Time now 2014-Jul-26 17:16 UTC.
Position N 59°20' E 018°12'.

Length 38 m; draft 1.8 m.

Type: Passenger vessel. MMSI: 265512110.

Date/timePositionNaut miles runAvg speedWind from/ knotsBaromVisibWave heightAir tempDewpointWater temp
2014-Jul-26 11:24N 59°20' E 018°12'4 4.5
2014-Jul-26 10:33N 59°20' E 018°05'0 0.0
2014-Jul-26 09:33N 59°20' E 018°05'1 0.1
2014-Jul-25 16:07N 59°19' E 018°06'1 0.6
2014-Jul-25 14:32N 59°20' E 018°05'0 0.0
2014-Jul-25 03:12N 59°20' E 018°05'0 0.0
2014-Jul-25 02:15N 59°20' E 018°04'0 0.0
2014-Jul-25 01:18N 59°20' E 018°04'0 0.0
2014-Jul-24 17:17N 59°20' E 018°04'4 0.3
2014-Jul-24 07:07N 59°20' E 018°11'4 2.3
2014-Jul-24 05:33N 59°20' E 018°05'0 0.0
2014-Jul-23 17:20N 59°20' E 018°05'4 0.4
2014-Jul-23 07:09N 59°20' E 018°13'4 6.4
2014-Jul-23 06:28N 59°20' E 018°05'0 0.0
2014-Jul-23 05:33N 59°20' E 018°05'0 0.0
2014-Jul-23 04:33N 59°20' E 018°05'0 0.0
2014-Jul-23 03:33N 59°20' E 018°05'0 0.0
2014-Jul-23 02:33N 59°20' E 018°05'0 0.0
2014-Jul-23 01:33N 59°20' E 018°05'0 0.0
2014-Jul-23 00:33N 59°20' E 018°05'0 0.0
2014-Jul-22 23:33N 59°20' E 018°05'0 0.0
2014-Jul-22 22:33N 59°20' E 018°05'0 0.0
2014-Jul-22 21:33N 59°20' E 018°05'0 0.0
2014-Jul-22 20:33N 59°20' E 018°05'0 0.0
2014-Jul-22 19:33N 59°20' E 018°05'0 0.0
2014-Jul-22 18:33N 59°20' E 018°05'0 0.0
2014-Jul-22 17:33N 59°20' E 018°05'0 0.0
2014-Jul-21 19:06N 59°20' E 018°05'0 0.0
2014-Jul-21 18:33N 59°20' E 018°05'0 0.0
2014-Jul-21 17:33N 59°20' E 018°05'0 0.0
2014-Jul-21 06:23N 59°20' E 018°05'1 0.0
2014-Jul-20 15:05N 59°19' E 018°05'1 1.1
2014-Jul-20 14:28N 59°20' E 018°04'1 0.1
2014-Jul-20 07:06N 59°19' E 018°06'1 1.4
2014-Jul-20 06:31N 59°20' E 018°04'0 0.0
2014-Jul-20 05:33N 59°20' E 018°04'0 0.0
2014-Jul-20 04:32N 59°20' E 018°04'0 0.0
2014-Jul-20 03:33N 59°20' E 018°04'0 0.0
2014-Jul-20 02:33N 59°20' E 018°04'0 0.0
2014-Jul-20 01:33N 59°20' E 018°04'0 0.0
2014-Jul-20 00:33N 59°20' E 018°04'0 0.0
2014-Jul-19 23:33N 59°20' E 018°04'0 0.0
2014-Jul-19 22:33N 59°20' E 018°04'0 0.0
2014-Jul-19 21:33N 59°20' E 018°04'0 0.0
2014-Jul-19 20:33N 59°20' E 018°04'0 0.0
2014-Jul-19 19:33N 59°20' E 018°04'1 0.1
2014-Jul-19 11:09N 59°19' E 018°06'1 1.7
2014-Jul-19 10:33N 59°20' E 018°04'0 0.0
2014-Jul-19 09:33N 59°20' E 018°04'1 0.0
2014-Jul-18 16:06N 59°19' E 018°05'1 0.4
2014-Jul-18 14:16N 59°20' E 018°04'0 0.0
2014-Jul-18 06:34N 59°19' E 018°05'0 0.3
2014-Jul-18 05:33N 59°20' E 018°04'0 0.0
2014-Jul-18 04:33N 59°20' E 018°04'0 0.0
2014-Jul-18 03:33N 59°20' E 018°04'0 0.0
2014-Jul-18 02:34N 59°20' E 018°05'0 0.0
2014-Jul-18 01:33N 59°20' E 018°05'0 0.0
2014-Jul-18 00:33N 59°20' E 018°05'0 0.0
2014-Jul-17 23:33N 59°20' E 018°04'0 0.0
2014-Jul-17 22:33N 59°20' E 018°04'0 0.0
2014-Jul-17 21:33N 59°20' E 018°04'0 0.0
2014-Jul-17 20:33N 59°20' E 018°04'0 0.0
2014-Jul-17 19:33N 59°20' E 018°04'0 0.0
2014-Jul-17 18:33N 59°20' E 018°05'0 0.0
2014-Jul-17 17:33N 59°20' E 018°04'0 0.0
2014-Jul-17 06:33N 59°20' E 018°05'0 0.0
2014-Jul-17 05:33N 59°20' E 018°04'0 0.0
2014-Jul-17 04:33N 59°20' E 018°04'0 0.0
2014-Jul-17 03:33N 59°20' E 018°04'0 0.0
2014-Jul-17 02:33N 59°20' E 018°04'0 0.0
2014-Jul-17 01:33N 59°20' E 018°04'0 0.0
2014-Jul-17 00:33N 59°20' E 018°05'0 0.0
2014-Jul-16 23:34N 59°20' E 018°04'0 0.0
2014-Jul-16 22:33N 59°20' E 018°04'0 0.0
2014-Jul-16 21:33N 59°20' E 018°04'  

Dump ship's entire track history